createdAt,value
2019-01-23T00:01:34.744Z,57.70
2019-01-23T00:06:58.296Z,54.27
2019-01-23T00:09:26.402Z,60.97
2019-01-23T00:11:54.823Z,61.03
2019-01-23T00:14:22.968Z,62.60
2019-01-23T00:16:51.447Z,56.77
2019-01-23T00:19:19.879Z,47.70
2019-01-23T00:24:43.642Z,65.57
2019-01-23T00:27:51.738Z,59.83
2019-01-23T00:30:19.496Z,52.50
2019-01-23T00:32:47.552Z,53.33
2019-01-23T00:35:15.314Z,51.70
2019-01-23T00:37:43.398Z,51.43
2019-01-23T00:40:51.540Z,49.03
2019-01-23T00:44:00.099Z,46.10
2019-01-23T00:46:27.899Z,48.60
2019-01-23T00:48:56.048Z,55.23
2019-01-23T00:52:04.509Z,51.23
2019-01-23T00:57:08.800Z,55.03
2019-01-23T00:59:36.854Z,58.40
2019-01-23T01:02:44.960Z,55.37
2019-01-23T01:05:53.449Z,51.73
2019-01-23T01:08:21.910Z,53.77
2019-01-23T01:10:49.690Z,56.27
2019-01-23T01:13:18.091Z,50.47
2019-01-23T01:16:26.599Z,61.90
2019-01-23T01:19:35.089Z,60.97
2019-01-23T01:22:43.163Z,52.70
2019-01-23T01:25:52.194Z,56.33
2019-01-23T01:28:20.643Z,60.80
2019-01-23T01:30:47.688Z,62.43
2019-01-23T01:33:16.194Z,66.73
2019-01-23T01:35:44.382Z,62.77
2019-01-23T01:38:12.564Z,54.70
2019-01-23T01:40:41.047Z,61.63
2019-01-23T01:43:09.169Z,55.37
2019-01-23T01:45:37.719Z,59.07
2019-01-23T01:48:06.057Z,55.60
2019-01-23T01:50:34.181Z,48.73
2019-01-23T01:53:02.323Z,53.20
2019-01-23T01:59:18.784Z,57.20
2019-01-23T02:02:26.882Z,58.80
2019-01-23T02:04:55.528Z,54.77
2019-01-23T02:08:04.023Z,54.93
2019-01-23T02:10:32.108Z,55.83
2019-01-23T02:13:40.521Z,54.37
2019-01-23T02:16:48.703Z,53.77
2019-01-23T02:19:16.761Z,55.23
2019-01-23T02:22:24.892Z,54.67
2019-01-23T02:24:53.298Z,53.13
2019-01-23T02:27:21.652Z,55.53
2019-01-23T02:29:49.154Z,53.33
2019-01-23T02:32:17.511Z,54.30
2019-01-23T02:35:25.598Z,58.40
2019-01-23T02:37:54.583Z,55.00
2019-01-23T02:41:03.159Z,53.00
2019-01-23T02:44:11.266Z,57.73
2019-01-23T02:46:39.653Z,56.53
2019-01-23T02:49:48.142Z,51.80
2019-01-23T02:52:56.258Z,52.80
2019-01-23T02:59:17.503Z,60.53
2019-01-23T03:01:43.854Z,61.20
2019-01-23T03:04:11.555Z,55.50
2019-01-23T03:06:39.292Z,56.20
2019-01-23T03:09:48.471Z,55.47
2019-01-23T03:12:17.011Z,57.47
2019-01-23T03:14:45.487Z,56.80
2019-01-23T03:17:53.620Z,58.53
2019-01-23T03:20:21.799Z,59.97
2019-01-23T03:22:49.941Z,63.73
2019-01-23T03:25:25.273Z,64.77
2019-01-23T03:27:53.738Z,60.60
2019-01-23T03:31:02.652Z,57.17
2019-01-23T03:37:19.743Z,55.50
2019-01-23T03:39:48.276Z,57.60
2019-01-23T03:42:16.690Z,60.87
2019-01-23T03:44:45.235Z,53.87
2019-01-23T03:47:13.682Z,58.67
2019-01-23T03:49:42.135Z,59.47
2019-01-23T03:52:10.043Z,63.93
2019-01-23T03:55:18.469Z,62.33
2019-01-23T03:58:26.989Z,62.93
2019-01-23T04:01:35.452Z,57.63
2019-01-23T04:07:12.704Z,63.50
2019-01-23T04:09:41.147Z,62.17
2019-01-23T04:15:44.928Z,61.00
2019-01-23T04:18:13.038Z,60.87
2019-01-23T04:23:36.204Z,65.43
2019-01-23T04:26:44.349Z,62.07
2019-01-23T04:32:20.471Z,55.80
2019-01-23T04:34:48.736Z,59.63
2019-01-23T04:37:16.908Z,55.73
2019-01-23T04:40:25.039Z,61.37
2019-01-23T04:43:33.218Z,73.87
2019-01-23T04:46:00.658Z,77.42
2019-01-23T04:48:29.142Z,65.03
2019-01-23T04:51:37.353Z,63.77
2019-01-23T04:57:24.802Z,59.47
2019-01-23T04:59:52.843Z,68.23
2019-01-23T05:02:40.456Z,57.67
2019-01-23T05:05:48.941Z,79.30
2019-01-23T05:08:17.050Z,70.37
2019-01-23T05:10:44.915Z,55.57
2019-01-23T05:13:13.090Z,60.50
2019-01-23T05:18:35.795Z,67.37
2019-01-23T05:21:44.285Z,62.23
2019-01-23T05:27:21.245Z,60.20
2019-01-23T05:30:29.803Z,61.47
2019-01-23T05:33:38.301Z,63.43
2019-01-23T05:41:41.364Z,67.93
2019-01-23T05:44:09.129Z,63.63
2019-01-23T05:46:36.918Z,64.37
2019-01-23T05:49:04.671Z,65.53
2019-01-23T05:51:33.144Z,67.70
2019-01-23T05:54:41.640Z,68.77
2019-01-23T05:57:49.750Z,63.47
2019-01-23T06:00:36.879Z,67.90
2019-01-23T06:03:24.419Z,66.97
2019-01-23T06:05:52.898Z,65.70
2019-01-23T06:09:01.390Z,74.80
2019-01-23T06:15:03.973Z,74.67
2019-01-23T06:18:12.396Z,80.90
2019-01-23T06:20:40.960Z,81.47
2019-01-23T06:26:44.774Z,73.70
2019-01-23T06:32:08.119Z,73.23
2019-01-23T06:35:16.296Z,71.27
2019-01-23T06:38:24.412Z,68.23
2019-01-23T06:40:52.472Z,69.47
2019-01-23T06:43:21.698Z,74.93
2019-01-23T06:45:51.008Z,76.60
2019-01-23T06:48:59.465Z,70.00
2019-01-23T06:51:46.609Z,70.23
2019-01-23T06:54:55.063Z,64.87
2019-01-23T07:00:32.217Z,75.10
2019-01-23T07:03:00.454Z,70.90
2019-01-23T07:05:28.955Z,72.07
2019-01-23T07:07:56.713Z,84.37
2019-01-23T07:11:05.482Z,77.63
2019-01-23T07:13:33.982Z,67.23
2019-01-23T07:16:02.389Z,75.27
2019-01-23T07:19:10.889Z,71.10
2019-01-23T07:22:19.342Z,62.43
2019-01-23T07:24:47.558Z,65.43
2019-01-23T07:33:30.298Z,69.70
2019-01-23T07:35:57.974Z,62.77
2019-01-23T07:41:34.315Z,58.90
2019-01-23T07:44:42.778Z,78.53
2019-01-23T07:47:30.214Z,67.17
2019-01-23T07:49:58.011Z,74.23
2019-01-23T07:52:26.205Z,82.13
2019-01-23T07:54:54.770Z,75.30
2019-01-23T07:58:02.970Z,86.87
2019-01-23T08:00:31.762Z,112.47
2019-01-23T08:03:01.580Z,80.40
2019-01-23T08:05:29.346Z,78.30
2019-01-23T08:08:37.858Z,75.70
2019-01-23T08:11:06.248Z,81.83
2019-01-23T08:13:34.710Z,74.17
2019-01-23T08:16:43.270Z,72.40
2019-01-23T08:19:11.399Z,67.13
2019-01-23T08:21:39.571Z,78.80
2019-01-23T08:24:48.054Z,68.80
2019-01-23T08:36:42.476Z,70.80
2019-01-23T08:39:50.939Z,66.90
2019-01-23T08:42:59.040Z,77.27
2019-01-23T08:52:11.561Z,71.73
2019-01-23T08:55:20.054Z,68.20
2019-01-23T08:57:48.123Z,71.37
2019-01-23T09:00:56.552Z,69.10
2019-01-23T09:03:24.371Z,64.87
2019-01-23T09:05:52.529Z,77.63
2019-01-23T09:11:14.827Z,77.37
2019-01-23T09:13:43.381Z,76.43
2019-01-23T09:16:11.754Z,72.47
2019-01-23T09:19:19.808Z,72.43
2019-01-23T09:21:47.609Z,71.13
2019-01-23T09:24:16.277Z,68.13
2019-01-23T09:26:44.431Z,71.20
2019-01-23T09:29:12.576Z,68.23
2019-01-23T09:35:30.218Z,68.40
2019-01-23T09:38:36.741Z,66.90
2019-01-23T09:41:43.334Z,69.83
2019-01-23T09:44:49.584Z,68.23
2019-01-23T09:48:00.539Z,66.53
2019-01-23T09:51:11.578Z,64.20
2019-01-23T09:54:22.851Z,87.33
2019-01-23T10:00:26.559Z,68.43
2019-01-23T10:03:35.030Z,71.93
2019-01-23T10:06:02.616Z,71.60
2019-01-23T10:08:31.100Z,84.10
2019-01-23T10:11:18.110Z,70.97
2019-01-23T10:13:45.258Z,67.43
2019-01-23T10:19:11.123Z,74.93
2019-01-23T10:22:19.237Z,72.43
2019-01-23T10:25:27.315Z,75.60
2019-01-23T10:28:35.483Z,71.67
2019-01-23T10:33:58.146Z,65.10
2019-01-23T10:36:25.570Z,68.70
2019-01-23T10:38:54.192Z,68.30
2019-01-23T10:41:22.573Z,65.43
2019-01-23T10:43:50.858Z,75.10
2019-01-23T10:46:18.171Z,69.17
2019-01-23T10:48:46.574Z,62.03
2019-01-23T10:51:15.012Z,69.70
2019-01-23T10:53:43.165Z,67.53
2019-01-23T10:56:11.568Z,63.43
2019-01-23T10:58:39.306Z,68.03
2019-01-23T11:01:13.235Z,68.00
2019-01-23T11:04:17.735Z,64.73
2019-01-23T11:06:46.140Z,62.70
2019-01-23T11:12:09.271Z,63.07
2019-01-23T11:20:41.319Z,61.63
2019-01-23T11:23:09.954Z,57.17
2019-01-23T11:25:38.405Z,60.63
2019-01-23T11:28:06.967Z,64.70
2019-01-23T11:30:35.339Z,64.27
2019-01-23T11:33:03.374Z,62.10
2019-01-23T11:36:11.458Z,58.53
2019-01-23T11:38:39.973Z,52.83
2019-01-23T11:41:08.660Z,59.27
2019-01-23T11:44:17.234Z,53.77
2019-01-23T11:46:45.640Z,55.03
2019-01-23T11:49:14.135Z,64.50
2019-01-23T11:51:42.224Z,55.77
2019-01-23T11:57:05.650Z,58.10
2019-01-23T11:59:33.763Z,54.80
2019-01-23T12:02:42.256Z,59.23
2019-01-23T12:05:51.558Z,59.23
2019-01-23T12:11:33.687Z,63.67
2019-01-23T12:14:42.201Z,63.20
2019-01-23T12:17:10.284Z,67.23
2019-01-23T12:20:18.752Z,55.97
2019-01-23T12:23:27.242Z,59.63
2019-01-23T12:25:55.676Z,61.67
2019-01-23T12:28:24.355Z,64.97
2019-01-23T12:30:52.510Z,59.73
2019-01-23T12:33:21.033Z,73.23
2019-01-23T12:38:44.259Z,59.00
2019-01-23T12:41:12.414Z,54.80
2019-01-23T12:44:20.654Z,55.27
2019-01-23T12:47:29.764Z,55.23
2019-01-23T12:49:58.321Z,59.60
2019-01-23T12:52:26.011Z,67.82
2019-01-23T12:54:54.414Z,62.30
2019-01-23T12:57:22.595Z,62.47
2019-01-23T12:59:50.970Z,57.83
2019-01-23T13:02:19.154Z,62.20
2019-01-23T13:04:47.300Z,56.57
2019-01-23T13:10:34.163Z,61.07
2019-01-23T13:15:57.852Z,62.80
2019-01-23T13:19:05.662Z,59.90
2019-01-23T13:21:32.975Z,58.57
2019-01-23T13:24:01.364Z,58.87
2019-01-23T13:27:09.460Z,55.77
2019-01-23T13:30:17.690Z,58.93
2019-01-23T13:32:45.479Z,61.87
2019-01-23T13:35:15.059Z,54.83
2019-01-23T13:37:43.290Z,59.30
2019-01-23T13:40:31.125Z,59.67
2019-01-23T13:42:59.404Z,58.23
2019-01-23T13:45:27.586Z,53.37
2019-01-23T13:48:35.800Z,57.93
2019-01-23T13:51:03.674Z,61.93
2019-01-23T13:53:31.842Z,65.03
2019-01-23T13:55:59.621Z,62.70
2019-01-23T13:59:07.844Z,56.50
2019-01-23T14:01:35.736Z,54.97
2019-01-23T14:04:44.245Z,58.60
2019-01-23T14:09:46.062Z,59.60
2019-01-23T14:12:14.337Z,62.33
2019-01-23T14:17:37.826Z,62.33
2019-01-23T14:20:46.898Z,59.50
2019-01-23T14:23:14.422Z,57.67
2019-01-23T14:28:37.161Z,74.13
2019-01-23T14:31:06.898Z,107.70
2019-01-23T14:33:35.137Z,65.43
2019-01-23T14:39:39.486Z,59.27
2019-01-23T14:42:07.755Z,64.40
2019-01-23T14:48:24.544Z,54.73
2019-01-23T14:56:42.735Z,55.73
2019-01-23T14:59:11.064Z,55.90
2019-01-23T15:01:39.663Z,56.27
2019-01-23T15:04:08.717Z,68.87
2019-01-23T15:06:36.135Z,99.13
2019-01-23T15:09:46.324Z,65.87
2019-01-23T15:12:14.461Z,63.80
2019-01-23T15:15:22.975Z,61.63
2019-01-23T15:17:51.718Z,67.13
2019-01-23T15:21:01.171Z,68.17
2019-01-23T15:24:10.186Z,66.23
2019-01-23T15:27:18.277Z,61.17
2019-01-23T15:30:26.776Z,63.30
2019-01-23T15:35:50.169Z,61.30
2019-01-23T15:38:18.450Z,65.83
2019-01-23T15:40:46.613Z,72.43
2019-01-23T15:43:15.316Z,71.63
2019-01-23T15:45:43.171Z,62.90
2019-01-23T15:48:11.245Z,64.97
2019-01-23T15:50:41.185Z,71.10
2019-01-23T15:56:45.186Z,68.77
2019-01-23T15:59:53.404Z,65.17
2019-01-23T16:02:24.407Z,71.00
2019-01-23T16:04:52.295Z,62.20
2019-01-23T16:07:20.876Z,63.17
2019-01-23T16:09:49.053Z,59.10
2019-01-23T16:12:17.638Z,70.57
2019-01-23T16:14:45.914Z,60.20
2019-01-23T16:17:14.402Z,61.13
2019-01-23T16:19:42.576Z,66.20
2019-01-23T16:22:11.113Z,61.73
2019-01-23T16:24:39.697Z,56.90
2019-01-23T16:27:07.956Z,63.40
2019-01-23T16:32:09.847Z,62.40
2019-01-23T16:35:18.055Z,61.07
2019-01-23T16:37:46.508Z,70.23
2019-01-23T16:40:55.113Z,75.63
2019-01-23T16:44:03.595Z,74.03
2019-01-23T16:46:31.343Z,66.53
2019-01-23T16:49:39.480Z,67.03
2019-01-23T16:52:07.962Z,72.27
2019-01-23T16:54:36.035Z,69.60
2019-01-23T16:57:03.486Z,70.80
2019-01-23T17:00:11.948Z,74.60
2019-01-23T17:03:20.496Z,71.47
2019-01-23T17:08:57.271Z,73.53
2019-01-23T17:11:25.764Z,66.97
2019-01-23T17:13:54.541Z,78.20
2019-01-23T17:17:03.070Z,78.63
2019-01-23T17:19:31.679Z,72.77
2019-01-23T17:21:59.311Z,98.70
2019-01-23T17:25:07.508Z,88.43
2019-01-23T17:28:15.642Z,96.23
2019-01-23T17:31:24.077Z,100.63
2019-01-23T17:37:27.732Z,87.07
2019-01-23T17:40:35.951Z,97.93
2019-01-23T17:43:44.556Z,89.90
2019-01-23T17:49:20.839Z,74.47
2019-01-23T17:51:49.426Z,81.70
2019-01-23T17:54:17.897Z,81.20
2019-01-23T17:56:48.165Z,87.67
2019-01-23T17:59:16.930Z,82.53
2019-01-23T18:02:25.435Z,83.13
2019-01-23T18:05:33.700Z,85.43
2019-01-23T18:08:01.505Z,82.07
2019-01-23T18:11:09.734Z,82.37
2019-01-23T18:14:17.887Z,101.20
2019-01-23T18:17:26.596Z,79.97
2019-01-23T18:19:54.841Z,78.87
2019-01-23T18:22:42.328Z,80.23
2019-01-23T18:31:40.350Z,77.23
2019-01-23T18:34:47.100Z,73.73
2019-01-23T18:41:10.512Z,73.03
2019-01-23T18:44:04.338Z,84.47
2019-01-23T18:47:11.796Z,84.87
2019-01-23T18:50:18.555Z,87.63
2019-01-23T18:53:06.701Z,83.60
2019-01-23T18:55:47.199Z,78.93
2019-01-23T19:01:07.052Z,82.60
2019-01-23T19:06:56.928Z,103.73
2019-01-23T19:09:44.802Z,92.53
2019-01-23T19:15:33.395Z,75.03
2019-01-23T19:20:37.292Z,99.07
2019-01-23T19:23:06.163Z,99.70
2019-01-23T19:28:43.055Z,102.97
2019-01-23T19:31:52.066Z,105.33
2019-01-23T19:35:00.346Z,94.00
2019-01-23T19:37:48.793Z,93.17
2019-01-23T19:40:57.594Z,95.63
2019-01-23T19:43:45.201Z,92.40
2019-01-23T19:46:14.221Z,91.93
2019-01-23T19:48:43.966Z,97.50
2019-01-23T19:54:21.688Z,93.87
2019-01-23T20:02:53.584Z,70.80
2019-01-23T20:08:27.710Z,82.20
2019-01-23T20:11:36.638Z,93.73
2019-01-23T20:14:25.170Z,110.20
2019-01-23T20:16:53.677Z,100.07
2019-01-23T20:19:21.953Z,95.63
2019-01-23T20:22:09.607Z,102.17
2019-01-23T20:27:31.832Z,97.90
2019-01-23T20:32:53.460Z,89.57
2019-01-23T20:38:16.738Z,98.53
2019-01-23T20:41:24.917Z,134.07
2019-01-23T20:44:33.631Z,113.97
2019-01-23T20:50:34.953Z,99.03
2019-01-23T20:53:22.136Z,105.33
2019-01-23T21:01:19.942Z,89.37
2019-01-23T21:03:48.479Z,85.13
2019-01-23T21:06:30.116Z,84.97
2019-01-23T21:08:58.823Z,85.83
2019-01-23T21:12:07.714Z,84.57
2019-01-23T21:14:58.029Z,77.70
2019-01-23T21:17:45.928Z,85.77
2019-01-23T21:20:34.423Z,70.33
2019-01-23T21:23:42.705Z,76.43
2019-01-23T21:26:10.885Z,84.00
2019-01-23T21:34:30.971Z,85.43
2019-01-23T21:36:58.854Z,89.87
2019-01-23T21:40:07.547Z,95.97
2019-01-23T21:43:16.662Z,80.73
2019-01-23T21:46:25.591Z,81.53
2019-01-23T21:51:49.733Z,104.80
2019-01-23T21:56:52.461Z,106.93
2019-01-23T22:02:38.690Z,104.13
2019-01-23T22:05:48.259Z,93.03
2019-01-23T22:08:17.094Z,94.13
2019-01-23T22:11:25.231Z,90.60
2019-01-23T22:13:53.272Z,94.07
2019-01-23T22:17:01.766Z,91.80
2019-01-23T22:19:30.532Z,88.87
2019-01-23T22:39:08.992Z,104.40
2019-01-23T22:41:38.570Z,92.97
2019-01-23T22:44:47.145Z,108.23
2019-01-23T22:47:15.321Z,100.37
2019-01-23T22:49:43.197Z,96.03
2019-01-23T22:52:51.692Z,112.13
2019-01-23T22:55:59.868Z,100.70
2019-01-23T22:58:27.525Z,100.37
2019-01-23T23:07:48.266Z,101.20
2019-01-23T23:10:16.125Z,91.47
2019-01-23T23:12:43.503Z,95.17
2019-01-23T23:15:51.642Z,94.67
2019-01-23T23:21:27.744Z,90.93
2019-01-23T23:24:36.229Z,84.50
2019-01-23T23:27:44.759Z,88.10
2019-01-23T23:30:53.265Z,84.50
2019-01-23T23:34:01.410Z,77.87
2019-01-23T23:37:09.853Z,85.43
2019-01-23T23:40:17.684Z,93.23
2019-01-23T23:42:46.188Z,84.20
2019-01-23T23:45:54.713Z,84.03
2019-01-23T23:51:17.501Z,89.37
2019-01-23T23:53:45.702Z,88.53
2019-01-23T23:56:14.122Z,82.97
2019-01-23T23:59:22.643Z,91.93
